Time;durP1;ratioP1;P1;durP2;ratioP2;P2;SDS_P1;SDS_P2;PMS_P1;PMS_P2;Temp;Humidity;BMP_temperature;BMP_pressure;BME280_temperature;BME280_humidity;BME280_pressure;Samples;Min_cycle;Max_cycle;Signal;HPM_P1;HPM_P2
2023/08/12 00:01:21;;;;;;;7.33;3.30;;;;;;;-143.84;58.39;45037.66;5092408;28;20439;-52
2023/08/12 00:03:48;;;;;;;7.13;3.83;;;;;;;-143.84;58.36;45035.75;5092205;28;20494;-52
2023/08/12 00:06:15;;;;;;;5.20;3.63;;;;;;;-143.84;58.28;45066.22;5092361;28;20546;-53
2023/08/12 00:08:42;;;;;;;2.83;2.60;;;;;;;-143.84;58.20;45043.34;5092743;28;20587;-55
2023/08/12 00:11:09;;;;;;;5.70;3.43;;;;;;;-143.84;58.20;45026.22;5092773;28;20493;-56
2023/08/12 00:13:38;;;;;;;10.40;3.07;;;;;;;-143.84;58.64;45068.13;5092862;28;20440;-56
2023/08/12 00:16:05;;;;;;;3.60;3.30;;;;;;;-143.84;58.28;45049.06;5092857;28;20471;-55
2023/08/12 00:18:36;;;;;;;4.10;3.70;;;;;;;-143.84;58.06;45037.66;5092652;28;20440;-55
2023/08/12 00:21:07;;;;;;;4.43;3.20;;;;;;;-143.84;58.36;45054.78;5092526;28;20459;-55
2023/08/12 00:23:38;;;;;;;4.80;3.87;;;;;;;-143.84;58.14;45041.44;5092858;28;20773;-55
2023/08/12 00:26:05;;;;;;;3.63;3.33;;;;;;;-143.84;58.02;45050.97;5092572;28;20504;-55
2023/08/12 00:28:33;;;;;;;4.33;3.93;;;;;;;-143.84;58.17;45037.66;5092540;28;20455;-56
2023/08/12 00:31:01;;;;;;;6.87;3.60;;;;;;;-143.84;57.97;45041.44;5092649;28;20490;-55
2023/08/12 00:33:29;;;;;;;7.50;4.13;;;;;;;-143.84;57.74;45081.44;5092414;28;20838;-55
2023/08/12 00:35:56;;;;;;;5.20;3.63;;;;;;;-143.84;57.54;45041.44;5092195;28;20494;-56
2023/08/12 00:38:23;;;;;;;6.07;3.50;;;;;;;-143.84;57.46;45047.16;5092317;28;20865;-55
2023/08/12 00:40:50;;;;;;;7.20;4.27;;;;;;;-143.84;57.75;45039.53;5091779;28;20489;-56
2023/08/12 00:43:17;;;;;;;11.13;3.60;;;;;;;-143.84;57.90;45037.66;5091538;28;20484;-55
2023/08/12 00:45:45;;;;;;;5.00;4.50;;;;;;;-143.84;57.96;45018.59;5091761;28;20436;-55
2023/08/12 00:48:13;;;;;;;6.20;4.40;;;;;;;-143.84;57.75;45035.75;5091764;28;20922;-55
2023/08/12 00:50:41;;;;;;;8.00;4.53;;;;;;;-143.84;57.85;45045.25;5091955;28;20444;-55
2023/08/12 00:53:09;;;;;;;11.23;4.60;;;;;;;-143.84;57.83;45056.69;5091737;28;20443;-55
2023/08/12 00:55:37;;;;;;;6.97;3.70;;;;;;;-143.84;58.04;45043.34;5091755;28;20497;-55
2023/08/12 00:58:05;;;;;;;6.87;3.93;;;;;;;-143.84;58.12;45045.25;5092190;28;20432;-55
2023/08/12 01:00:33;;;;;;;5.43;4.67;;;;;;;-143.84;58.13;45050.97;5091832;28;20452;-55
2023/08/12 01:03:01;;;;;;;4.83;4.10;;;;;;;-143.84;58.50;45037.66;5091988;28;20548;-55
2023/08/12 01:05:31;;;;;;;4.50;4.10;;;;;;;-143.84;58.87;45039.53;5091544;28;20986;-55
2023/08/12 01:07:58;;;;;;;8.10;4.60;;;;;;;-143.84;58.50;45035.75;5092148;28;20444;-55
2023/08/12 01:10:28;;;;;;;4.03;3.73;;;;;;;-143.84;58.53;45041.44;5091519;28;20432;-55
2023/08/12 01:13:06;;;;;;;5.13;3.70;;;;;;;-143.84;59.47;45060.50;5091898;28;20549;-55
2023/08/12 01:15:35;;;;;;;7.00;4.33;;;;;;;-143.84;59.51;45068.13;5091639;28;20818;-55
2023/08/12 01:18:03;;;;;;;7.77;4.13;;;;;;;-143.84;60.00;45045.25;5091542;28;20436;-55
2023/08/12 01:20:32;;;;;;;5.47;4.60;;;;;;;-143.84;61.06;45050.97;5091713;28;21359;-55
2023/08/12 01:23:13;;;;;;;7.00;4.77;;;;;;;-143.84;61.55;45037.66;5091358;28;20444;-55
2023/08/12 01:25:41;;;;;;;11.67;4.67;;;;;;;-143.84;61.27;45049.06;5091353;28;20810;-55
2023/08/12 01:28:08;;;;;;;8.07;5.10;;;;;;;-143.84;61.69;45054.78;5091568;28;20432;-55
2023/08/12 01:30:40;;;;;;;10.53;4.23;;;;;;;-143.84;61.99;45075.72;5091437;28;20531;-55
2023/08/12 01:33:13;;;;;;;8.03;5.07;;;;;;;-143.84;63.12;45050.97;5091263;28;20441;-56
2023/08/12 01:35:45;;;;;;;8.37;5.10;;;;;;;-143.84;63.08;45071.91;5090937;28;20554;-55
2023/08/12 01:38:13;;;;;;;6.67;4.90;;;;;;;-143.84;64.29;45064.31;5091114;28;20439;-55
2023/08/12 01:40:42;;;;;;;7.40;4.67;;;;;;;-143.84;64.48;45050.97;5091480;28;20428;-55
2023/08/12 01:43:10;;;;;;;6.67;4.87;;;;;;;-143.84;65.56;45064.31;5091281;28;20512;-55
2023/08/12 01:45:37;;;;;;;11.80;4.67;;;;;;;-143.84;66.27;45050.97;5090911;28;20509;-55
2023/08/12 01:48:05;;;;;;;7.37;4.77;;;;;;;-143.84;65.94;45056.69;5091080;28;20432;-55
2023/08/12 01:50:32;;;;;;;16.00;5.53;;;;;;;-143.84;67.30;45092.88;5090687;28;20448;-55
2023/08/12 01:52:59;;;;;;;7.27;4.60;;;;;;;-143.84;67.33;45077.63;5090655;28;20444;-55
2023/08/12 01:55:28;;;;;;;10.80;5.73;;;;;;;-143.84;67.75;45064.31;5090526;28;20440;-55
2023/08/12 01:57:55;;;;;;;5.20;4.70;;;;;;;-143.84;67.74;45056.69;5090791;28;20544;-55
2023/08/12 02:00:22;;;;;;;5.90;4.40;;;;;;;-143.84;67.70;45064.31;5090370;28;20458;-56
2023/08/12 02:02:49;;;;;;;5.60;4.67;;;;;;;-143.84;68.08;45083.34;5090629;28;20487;-55
2023/08/12 02:05:17;;;;;;;5.97;4.70;;;;;;;-143.84;68.35;45071.91;5090519;28;20509;-55
2023/08/12 02:07:44;;;;;;;8.23;5.13;;;;;;;-143.84;68.64;45052.88;5090669;28;20477;-56
2023/08/12 02:10:14;;;;;;;4.93;4.47;;;;;;;-143.84;69.25;45064.31;5090701;28;20444;-55
2023/08/12 02:12:42;;;;;;;5.60;5.10;;;;;;;-143.84;69.07;45056.69;5090393;28;20447;-56
2023/08/12 02:15:11;;;;;;;7.63;5.40;;;;;;;-143.84;69.46;45064.31;5090250;28;20440;-56
2023/08/12 02:17:38;;;;;;;13.80;5.77;;;;;;;-143.84;69.29;45056.69;5089310;28;21016;-55
2023/08/12 02:20:07;;;;;;;13.87;4.87;;;;;;;-143.84;69.32;45073.81;5090349;28;20773;-55
2023/08/12 02:22:34;;;;;;;5.30;4.63;;;;;;;-143.84;69.57;45077.63;5090003;28;20436;-55
2023/08/12 02:25:01;;;;;;;8.03;5.03;;;;;;;-143.84;69.80;45066.22;5090280;28;20444;-56
2023/08/12 02:27:28;;;;;;;8.13;5.70;;;;;;;-143.84;69.99;45071.91;5090066;28;20439;-56
2023/08/12 02:29:56;;;;;;;6.33;5.63;;;;;;;-143.84;70.48;45052.88;5090018;28;20929;-55
2023/08/12 02:32:23;;;;;;;7.47;4.93;;;;;;;-143.84;70.87;45090.97;5089916;28;20470;-55
2023/08/12 02:34:51;;;;;;;6.20;5.60;;;;;;;-143.84;71.18;45060.50;5089876;28;20447;-56
2023/08/12 02:37:18;;;;;;;5.53;4.73;;;;;;;-143.84;71.27;45068.13;5089806;28;20521;-55
2023/08/12 02:39:45;;;;;;;8.70;5.30;;;;;;;-143.84;71.37;45071.91;5089931;28;20846;-56
2023/08/12 02:42:12;;;;;;;6.83;5.40;;;;;;;-143.84;71.45;45075.72;5089732;28;20470;-55
2023/08/12 02:44:39;;;;;;;7.73;5.07;;;;;;;-143.84;71.79;45068.13;5089788;28;20432;-56
2023/08/12 02:47:08;;;;;;;6.40;4.83;;;;;;;-143.84;71.80;45079.53;5089909;28;20440;-55
2023/08/12 02:49:35;;;;;;;9.40;5.83;;;;;;;-143.84;71.88;45089.06;5090093;28;20436;-55
2023/08/12 02:52:02;;;;;;;7.53;5.57;;;;;;;-143.84;72.16;45077.63;5089541;28;20466;-55
2023/08/12 02:54:29;;;;;;;7.50;5.17;;;;;;;-143.84;72.77;45066.22;5089329;28;20444;-53
2023/08/12 02:56:56;;;;;;;8.33;4.87;;;;;;;-143.84;72.74;45071.91;5089258;28;20480;-53
2023/08/12 02:59:25;;;;;;;14.00;5.23;;;;;;;-143.84;73.19;45062.41;5089265;28;20448;-53
2023/08/12 03:01:52;;;;;;;6.10;5.57;;;;;;;-143.84;73.08;45064.31;5089092;28;20877;-53
2023/08/12 03:04:20;;;;;;;6.00;5.50;;;;;;;-143.84;73.32;45079.53;5088639;28;20479;-54
2023/08/12 03:06:47;;;;;;;6.80;5.97;;;;;;;-143.84;73.38;45089.06;5088552;28;20448;-53
2023/08/12 03:09:15;;;;;;;11.30;5.83;;;;;;;-143.84;73.16;45070.00;5088622;28;20432;-54
2023/08/12 03:11:42;;;;;;;8.00;5.77;;;;;;;-143.84;73.10;45081.44;5088829;28;20934;-53
2023/08/12 03:14:09;;;;;;;7.20;5.50;;;;;;;-143.84;73.04;45070.00;5089439;28;20443;-53
2023/08/12 03:16:36;;;;;;;5.73;5.23;;;;;;;-143.84;73.06;45089.06;5089019;28;20471;-53
2023/08/12 03:19:03;;;;;;;6.70;5.17;;;;;;;-143.84;72.83;45062.41;5089237;28;20536;-53
2023/08/12 03:21:32;;;;;;;6.87;5.43;;;;;;;-143.84;72.54;45068.13;5089013;28;20448;-53
2023/08/12 03:23:59;;;;;;;8.13;5.20;;;;;;;-143.84;72.65;45070.00;5088820;28;20440;-53
2023/08/12 03:26:26;;;;;;;6.30;5.40;;;;;;;-143.84;72.65;45062.41;5088889;28;20447;-53
2023/08/12 03:28:53;;;;;;;6.37;5.67;;;;;;;-143.84;72.57;45070.00;5092161;28;20444;-53
2023/08/12 03:31:20;;;;;;;7.30;5.40;;;;;;;-143.84;72.53;45087.16;5093459;28;20431;-53
2023/08/12 03:33:47;;;;;;;5.33;4.83;;;;;;;-143.84;72.06;45083.34;5093166;28;20436;-54
2023/08/12 03:36:14;;;;;;;10.63;5.00;;;;;;;-143.84;72.13;45071.91;5092843;28;20448;-53
2023/08/12 03:38:43;;;;;;;6.20;5.60;;;;;;;-143.84;71.79;45071.91;5092565;28;20475;-52
2023/08/12 03:41:10;;;;;;;6.30;5.70;;;;;;;-143.84;71.80;45070.00;5092815;28;20451;-52
2023/08/12 03:43:37;;;;;;;6.93;5.60;;;;;;;-143.84;71.30;45087.16;5092621;28;20436;-52
2023/08/12 03:46:04;;;;;;;6.10;4.50;;;;;;;-143.84;70.43;45068.13;5093044;28;20436;-52
2023/08/12 03:48:31;;;;;;;8.53;5.70;;;;;;;-143.84;68.82;45066.22;5092851;28;20442;-52
2023/08/12 03:50:58;;;;;;;10.00;5.73;;;;;;;-143.84;64.99;45064.31;5092815;28;20463;-52
2023/08/12 03:53:26;;;;;;;12.70;5.00;;;;;;;-143.84;60.61;45058.59;5092559;28;20439;-52
2023/08/12 03:55:54;;;;;;;6.50;5.33;;;;;;;-143.84;58.17;45052.88;5092563;28;21225;-53
2023/08/12 03:58:21;;;;;;;7.13;4.70;;;;;;;-143.84;57.30;45047.16;5092567;28;20471;-53
2023/08/12 04:00:48;;;;;;;9.10;5.30;;;;;;;-143.84;54.50;45012.88;5092802;28;20431;-52
2023/08/12 04:03:15;;;;;;;7.43;4.87;;;;;;;-143.84;52.20;45033.84;5092400;28;20483;-53
2023/08/12 04:05:49;;;;;;;9.87;5.27;;;;;;;-143.84;50.40;44995.75;5092272;28;20448;-53
2023/08/12 04:08:16;;;;;;;8.03;5.57;;;;;;;-143.84;49.42;45014.78;5092279;28;20504;-53
2023/08/12 04:10:47;;;;;;;6.43;5.20;;;;;;;-143.84;49.23;45003.38;5092164;28;20440;-53
2023/08/12 04:13:16;;;;;;;5.33;4.83;;;;;;;-143.84;48.71;44997.66;5092336;28;20649;-53
2023/08/12 04:15:43;;;;;;;5.23;4.50;;;;;;;-143.84;48.82;45007.19;5092082;28;20456;-53
2023/08/12 04:18:10;;;;;;;5.40;4.90;;;;;;;-143.84;47.88;44988.13;5091746;28;20471;-53
2023/08/12 04:20:39;;;;;;;8.37;4.63;;;;;;;-143.84;47.71;45014.78;5092025;28;20948;-53
2023/08/12 04:23:06;;;;;;;6.97;4.43;;;;;;;-143.84;47.65;45018.59;5092023;28;20452;-54
2023/08/12 04:25:33;;;;;;;5.67;4.40;;;;;;;-143.84;46.64;44997.66;5091956;28;20444;-53
2023/08/12 04:28:00;;;;;;;4.77;4.17;;;;;;;-143.84;46.42;45012.88;5092104;28;20469;-54
2023/08/12 04:30:29;;;;;;;7.53;4.67;;;;;;;-143.84;46.23;45007.19;5091979;28;20493;-53
2023/08/12 04:32:56;;;;;;;8.87;4.23;;;;;;;-143.84;45.92;44986.22;5091772;28;20529;-53
2023/08/12 04:35:23;;;;;;;8.67;4.43;;;;;;;-143.84;46.06;44997.66;5092151;28;20888;-53
2023/08/12 04:37:50;;;;;;;9.07;4.10;;;;;;;-143.84;45.64;45001.47;5091645;28;20471;-54
2023/08/12 04:40:17;;;;;;;4.60;4.20;;;;;;;-143.84;45.33;44965.28;5090676;28;20446;-54
2023/08/12 04:42:45;;;;;;;7.00;4.93;;;;;;;-143.84;45.41;44995.75;5091565;28;20489;-53
2023/08/12 04:45:12;;;;;;;3.97;3.67;;;;;;;-143.84;44.84;45009.09;5091768;28;20436;-53
2023/08/12 04:47:41;;;;;;;7.90;4.53;;;;;;;-143.84;45.03;44965.28;5091407;28;20440;-53
2023/08/12 04:50:09;;;;;;;10.50;4.10;;;;;;;-143.84;44.77;44988.13;5091709;28;20502;-53
2023/08/12 04:52:36;;;;;;;6.93;4.83;;;;;;;-143.84;44.02;44993.84;5091605;28;20440;-54
2023/08/12 04:55:04;;;;;;;7.60;4.60;;;;;;;-143.84;44.04;44980.53;5091639;28;20428;-53
2023/08/12 04:57:31;;;;;;;4.43;3.70;;;;;;;-143.84;43.53;44963.38;5091374;28;20487;-53
2023/08/12 04:59:58;;;;;;;10.13;4.73;;;;;;;-143.84;42.67;44969.09;5091405;28;20501;-53
2023/08/12 05:02:26;;;;;;;4.10;3.70;;;;;;;-143.84;42.25;44971.00;5090928;28;20451;-53
2023/08/12 05:04:54;;;;;;;5.00;4.00;;;;;;;-143.84;41.53;44957.66;5091474;28;20508;-53
2023/08/12 05:07:21;;;;;;;4.30;3.73;;;;;;;-143.84;41.28;44967.19;5091341;28;20573;-53
2023/08/12 05:09:49;;;;;;;6.77;4.23;;;;;;;-143.84;40.54;44944.34;5091285;28;20788;-53
2023/08/12 05:12:16;;;;;;;12.17;4.20;;;;;;;-143.84;39.86;44965.28;5091073;28;20444;-54
2023/08/12 05:14:43;;;;;;;3.73;3.43;;;;;;;-143.84;39.44;44934.81;5090893;28;20498;-53
2023/08/12 05:17:10;;;;;;;4.37;3.97;;;;;;;-143.84;39.42;44963.38;5090612;28;20440;-53
2023/08/12 05:19:37;;;;;;;7.17;3.67;;;;;;;-143.84;39.20;44938.63;5090730;28;20439;-53
2023/08/12 05:22:06;;;;;;;6.60;4.17;;;;;;;-143.84;38.58;44934.81;5090709;28;20505;-53
2023/08/12 05:24:33;;;;;;;5.70;4.23;;;;;;;-143.84;38.54;44921.50;5090689;28;20930;-53
2023/08/12 05:27:00;;;;;;;4.67;4.20;;;;;;;-143.84;38.23;44932.91;5090234;28;20485;-53
2023/08/12 05:29:27;;;;;;;4.53;3.63;;;;;;;-143.84;38.08;44923.41;5090384;28;21042;-53
2023/08/12 05:31:54;;;;;;;3.90;3.40;;;;;;;-143.84;37.45;44927.19;5090474;28;20517;-53
2023/08/12 05:34:21;;;;;;;7.37;4.27;;;;;;;-143.84;36.84;44915.78;5090220;28;20853;-53
2023/08/12 05:36:49;;;;;;;7.17;3.70;;;;;;;-143.84;37.27;44950.06;5090540;28;20500;-53
2023/08/12 05:39:18;;;;;;;6.37;3.80;;;;;;;-143.84;37.11;44913.88;5090662;28;20486;-53
2023/08/12 05:41:46;;;;;;;12.83;4.50;;;;;;;-143.84;36.41;44906.25;5090528;28;20813;-53
2023/08/12 05:44:13;;;;;;;10.50;4.20;;;;;;;-143.84;36.26;44892.94;5090744;28;20466;-53
2023/08/12 05:46:40;;;;;;;7.93;3.80;;;;;;;-143.84;36.36;44904.34;5090661;28;20432;-53
2023/08/12 05:49:07;;;;;;;13.43;3.13;;;;;;;-143.84;35.65;44934.81;5090393;28;21230;-53
2023/08/12 05:51:34;;;;;;;7.43;3.37;;;;;;;-143.84;35.79;44900.53;5090239;28;20443;-53
2023/08/12 05:54:01;;;;;;;4.80;3.47;;;;;;;-143.84;35.62;44906.25;5090250;28;20980;-53
2023/08/12 05:56:30;;;;;;;7.00;3.50;;;;;;;-143.84;35.42;44925.31;5090327;28;20512;-53
2023/08/12 05:58:57;;;;;;;13.67;3.80;;;;;;;-143.84;35.12;44883.41;5090124;28;20486;-53
2023/08/12 06:01:24;;;;;;;5.90;3.40;;;;;;;-143.84;35.08;44889.13;5090034;28;20440;-53
2023/08/12 06:03:51;;;;;;;7.03;3.80;;;;;;;-143.84;35.22;44873.88;5090022;28;20825;-53
2023/08/12 06:06:18;;;;;;;7.97;3.50;;;;;;;-143.84;34.96;44852.94;5090110;28;20444;-53
2023/08/12 06:08:45;;;;;;;4.03;3.20;;;;;;;-143.84;34.94;44866.28;5090071;28;20816;-53
2023/08/12 06:11:12;;;;;;;5.83;3.50;;;;;;;-143.84;33.65;44875.78;5090277;28;20440;-53
2023/08/12 06:13:41;;;;;;;3.73;3.43;;;;;;;-143.84;33.66;44889.13;5089970;28;20489;-53
2023/08/12 06:16:08;;;;;;;5.03;3.53;;;;;;;-143.84;33.62;44862.47;5089765;28;20517;-53
2023/08/12 06:18:35;;;;;;;3.63;3.33;;;;;;;-143.84;34.01;44894.84;5089760;28;20480;-53
2023/08/12 06:21:03;;;;;;;4.57;3.73;;;;;;;-143.84;33.70;44864.38;5089951;28;20435;-53
2023/08/12 06:23:31;;;;;;;5.47;3.53;;;;;;;-143.84;33.90;44871.97;5090070;28;20443;-53
2023/08/12 06:25:58;;;;;;;7.70;4.03;;;;;;;-143.84;33.48;44892.94;5089608;28;20471;-53
2023/08/12 06:28:25;;;;;;;8.33;4.47;;;;;;;-143.84;33.60;44877.69;5089734;28;20444;-53
2023/08/12 06:30:54;;;;;;;3.47;3.17;;;;;;;-143.84;32.74;44843.44;5089588;28;20447;-53
2023/08/12 06:33:21;;;;;;;3.30;3.00;;;;;;;-143.84;33.66;44871.97;5089754;28;20456;-53
2023/08/12 06:35:48;;;;;;;13.70;3.53;;;;;;;-143.84;32.88;44841.53;5089741;28;20513;-53
2023/08/12 06:38:15;;;;;;;7.30;3.23;;;;;;;-143.84;31.94;44864.38;5089603;28;20483;-53
2023/08/12 06:40:42;;;;;;;3.77;3.57;;;;;;;-143.84;32.20;44856.75;5089682;28;20866;-53
2023/08/12 06:43:10;;;;;;;4.30;3.20;;;;;;;-143.84;32.69;44870.09;5089710;28;20436;-53
2023/08/12 06:45:37;;;;;;;3.40;3.10;;;;;;;-143.84;32.41;44864.38;5089277;28;20459;-53
2023/08/12 06:48:06;;;;;;;3.97;3.60;;;;;;;-143.84;32.29;44839.63;5089552;28;20444;-53
2023/08/12 06:50:34;;;;;;;4.70;3.60;;;;;;;-143.84;32.54;44870.09;5089396;28;20440;-53
2023/08/12 06:53:01;;;;;;;3.97;3.57;;;;;;;-143.84;32.74;44849.13;5089645;28;20447;-53
2023/08/12 06:55:28;;;;;;;4.60;3.60;;;;;;;-143.84;33.37;44828.19;5089220;28;20809;-54
2023/08/12 06:57:55;;;;;;;13.13;4.30;;;;;;;-143.84;34.47;44868.19;5088924;28;20488;-53
2023/08/12 07:00:22;;;;;;;12.70;5.23;;;;;;;-143.84;34.05;44870.09;5089253;28;20452;-53
2023/08/12 07:02:49;;;;;;;11.27;4.30;;;;;;;-143.84;34.77;44873.88;5088494;28;20482;-53
2023/08/12 07:05:18;;;;;;;8.27;3.60;;;;;;;-143.84;34.32;44871.97;5089115;28;20532;-53
2023/08/12 07:07:45;;;;;;;10.93;4.10;;;;;;;-143.84;34.51;44862.47;5089402;28;20444;-53
2023/08/12 07:10:12;;;;;;;4.90;3.90;;;;;;;-143.84;34.39;44908.16;5089129;28;20444;-53
2023/08/12 07:12:39;;;;;;;5.50;3.73;;;;;;;-143.84;34.48;44847.22;5088976;28;21222;-53
2023/08/12 07:15:08;;;;;;;11.30;4.00;;;;;;;-143.84;34.08;44875.78;5088997;28;20451;-53
2023/08/12 07:17:35;;;;;;;8.10;4.90;;;;;;;-143.84;34.34;44835.81;5088791;28;20814;-53
2023/08/12 07:20:04;;;;;;;6.70;4.43;;;;;;;-143.84;34.96;44843.44;5089297;28;20845;-53
2023/08/12 07:22:32;;;;;;;5.17;4.77;;;;;;;-143.84;34.42;44864.38;5089038;28;21034;-53
2023/08/12 07:24:59;;;;;;;7.30;4.30;;;;;;;-143.84;34.91;44877.69;5089102;28;20497;-53
2023/08/12 07:27:27;;;;;;;9.90;4.03;;;;;;;-143.84;34.94;44873.88;5088576;28;20447;-53
2023/08/12 07:29:54;;;;;;;9.47;4.67;;;;;;;-143.84;34.83;44860.56;5088833;28;20938;-53
2023/08/12 07:32:22;;;;;;;11.93;4.43;;;;;;;-143.84;34.65;44894.84;5088716;28;20448;-53
2023/08/12 07:34:49;;;;;;;8.60;4.67;;;;;;;-143.84;35.36;44887.22;5089036;28;20497;-53
2023/08/12 07:37:16;;;;;;;9.83;4.53;;;;;;;-143.84;34.99;44864.38;5088679;28;20494;-53
2023/08/12 07:39:45;;;;;;;8.00;4.63;;;;;;;-143.84;34.74;44898.66;5088836;28;20483;-53
2023/08/12 07:42:12;;;;;;;5.67;4.50;;;;;;;-143.84;35.11;44877.69;5088577;28;20444;-53
2023/08/12 07:44:39;;;;;;;5.07;4.50;;;;;;;-143.84;35.90;44877.69;5088592;28;20550;-53
2023/08/12 07:47:06;;;;;;;6.87;4.60;;;;;;;-143.84;36.32;44885.31;5088667;28;20440;-53
2023/08/12 07:49:33;;;;;;;6.57;4.17;;;;;;;-143.84;37.57;44894.84;5088660;28;20443;-53
2023/08/12 07:52:00;;;;;;;6.40;4.43;;;;;;;-143.84;35.60;44883.41;5088582;28;21216;-53
2023/08/12 07:54:27;;;;;;;9.43;4.50;;;;;;;-143.84;35.68;44885.31;5088523;28;20440;-53
2023/08/12 07:56:56;;;;;;;5.03;4.40;;;;;;;-143.84;35.48;44889.13;5088180;28;21032;-53
2023/08/12 07:59:23;;;;;;;17.57;4.27;;;;;;;-143.84;35.95;44892.94;5088091;28;20540;-53
2023/08/12 08:01:50;;;;;;;7.57;3.90;;;;;;;-143.84;36.16;44873.88;5088033;28;20454;-53
2023/08/12 08:04:17;;;;;;;8.33;4.50;;;;;;;-143.84;35.02;44870.09;5088313;28;20471;-53
2023/08/12 08:06:44;;;;;;;5.73;4.67;;;;;;;-143.84;35.71;44873.88;5088465;28;20464;-53
2023/08/12 08:09:12;;;;;;;6.03;4.73;;;;;;;-143.84;35.21;44879.59;5088714;28;20440;-53
2023/08/12 08:11:39;;;;;;;7.07;4.40;;;;;;;-143.84;35.49;44847.22;5088397;28;20525;-53
2023/08/12 08:14:07;;;;;;;7.30;4.60;;;;;;;-143.84;35.95;44883.41;5088747;28;20956;-53
2023/08/12 08:16:34;;;;;;;4.80;4.30;;;;;;;-143.84;36.10;44881.50;5092205;28;20436;-53
2023/08/12 08:19:01;;;;;;;8.80;4.30;;;;;;;-143.84;35.84;44900.53;5092280;28;20529;-52
2023/08/12 08:21:29;;;;;;;10.97;3.80;;;;;;;-143.84;36.04;44902.44;5092269;28;20439;-53
2023/08/12 08:23:56;;;;;;;7.27;4.60;;;;;;;-143.84;35.67;44921.50;5092021;28;20802;-53
2023/08/12 08:26:23;;;;;;;8.90;3.97;;;;;;;-143.84;35.67;44925.31;5091825;28;20489;-53
2023/08/12 08:28:50;;;;;;;12.87;4.57;;;;;;;-143.84;35.62;44892.94;5092352;28;20428;-53
2023/08/12 08:31:19;;;;;;;15.07;4.77;;;;;;;-143.84;36.25;44908.16;5091928;28;20440;-53
2023/08/12 08:33:46;;;;;;;10.73;4.83;;;;;;;-143.84;36.73;44894.84;5091910;28;20992;-52
2023/08/12 08:36:13;;;;;;;6.20;4.40;;;;;;;-143.84;36.72;44913.88;5091771;28;20431;-52
2023/08/12 08:38:40;;;;;;;5.93;4.30;;;;;;;-143.84;36.86;44908.16;5091750;28;20486;-52
2023/08/12 08:41:10;;;;;;;10.87;4.70;;;;;;;-143.84;36.82;44908.16;5091719;28;20795;-52
2023/08/12 08:43:40;;;;;;;4.80;4.20;;;;;;;-143.84;37.38;44942.44;5091747;28;20463;-52
2023/08/12 08:46:08;;;;;;;8.57;5.50;;;;;;;-143.84;37.28;44934.81;5091590;28;20444;-53
2023/08/12 08:48:37;;;;;;;9.40;4.30;;;;;;;-143.84;38.52;44913.88;5091756;28;20804;-53
2023/08/12 08:51:06;;;;;;;4.70;4.20;;;;;;;-143.84;37.76;44904.34;5091459;28;20950;-53
2023/08/12 08:53:36;;;;;;;5.57;4.30;;;;;;;-143.84;38.74;44929.09;5091470;28;20440;-53
2023/08/12 08:56:03;;;;;;;10.33;5.40;;;;;;;-143.84;38.29;44940.53;5091566;28;20462;-52
2023/08/12 08:58:31;;;;;;;8.20;4.40;;;;;;;-143.84;37.92;44934.81;5091353;28;20479;-52
2023/08/12 09:00:58;;;;;;;4.83;4.43;;;;;;;-143.84;39.01;44938.63;5091352;28;20517;-52
2023/08/12 09:03:26;;;;;;;11.27;4.60;;;;;;;-143.84;39.89;44932.91;5091125;28;20846;-52
2023/08/12 09:05:56;;;;;;;6.80;4.13;;;;;;;-143.84;40.66;44929.09;5091115;28;20443;-53
2023/08/12 09:08:25;;;;;;;5.60;4.17;;;;;;;-143.84;40.31;44931.00;5091030;28;20456;-52
2023/08/12 09:10:52;;;;;;;14.30;9.07;;;;;;;-143.84;40.71;44942.44;5091128;28;20436;-53
2023/08/12 09:13:19;;;;;;;6.97;6.20;;;;;;;-143.84;40.37;44932.91;5091227;28;20934;-53
2023/08/12 09:15:47;;;;;;;11.30;6.30;;;;;;;-143.84;39.95;44919.59;5091277;28;20436;-52
2023/08/12 09:18:14;;;;;;;5.17;4.67;;;;;;;-143.84;37.86;44925.31;5091199;28;20424;-52
2023/08/12 09:20:43;;;;;;;6.50;4.53;;;;;;;-143.84;36.53;44898.66;5091229;28;20501;-53
2023/08/12 09:23:12;;;;;;;7.80;4.83;;;;;;;-143.84;36.87;44896.75;5090600;28;20513;-53
2023/08/12 09:25:43;;;;;;;8.33;5.87;;;;;;;-143.84;35.99;44891.03;5090478;28;20531;-53
2023/08/12 09:28:12;;;;;;;6.73;4.63;;;;;;;-143.84;36.20;44900.53;5090826;28;21118;-52
2023/08/12 09:30:39;;;;;;;4.53;3.63;;;;;;;-143.84;35.81;44896.75;5090823;28;20448;-52
2023/08/12 09:33:08;;;;;;;11.20;4.50;;;;;;;-143.84;38.43;44894.84;5090731;28;20495;-52
2023/08/12 09:35:36;;;;;;;6.50;4.20;;;;;;;-143.84;38.09;44875.78;5091021;28;20941;-52
2023/08/12 09:38:05;;;;;;;10.80;4.57;;;;;;;-143.84;36.78;44891.03;5090458;28;20454;-53
2023/08/12 09:40:35;;;;;;;12.40;6.07;;;;;;;-143.84;36.62;44891.03;5090623;28;20519;-53
2023/08/12 09:43:03;;;;;;;5.27;4.40;;;;;;;-143.84;37.30;44870.09;5090439;28;20454;-53
2023/08/12 09:45:31;;;;;;;5.97;4.70;;;;;;;-143.84;37.58;44881.50;5090387;28;20454;-53
2023/08/12 09:47:58;;;;;;;7.90;4.43;;;;;;;-143.84;38.15;44892.94;5090591;28;20513;-53
2023/08/12 09:50:26;;;;;;;7.73;4.93;;;;;;;-143.84;39.06;44902.44;5090621;28;20428;-52
2023/08/12 09:52:54;;;;;;;9.40;4.33;;;;;;;-143.84;39.44;44900.53;5090291;28;21324;-53
2023/08/12 09:55:23;;;;;;;7.20;4.10;;;;;;;-143.84;39.92;44881.50;5090336;28;20474;-53
2023/08/12 09:57:54;;;;;;;9.17;3.90;;;;;;;-143.84;39.96;44881.50;5090051;28;20489;-53
2023/08/12 10:00:22;;;;;;;5.40;4.20;;;;;;;-143.84;40.36;44904.34;5089773;28;20857;-53
2023/08/12 10:02:52;;;;;;;5.60;4.30;;;;;;;-143.84;39.46;44864.38;5089765;28;20487;-53
2023/08/12 10:05:25;;;;;;;6.20;4.10;;;;;;;-143.84;39.75;44908.16;5089874;28;20443;-53
2023/08/12 10:07:54;;;;;;;6.37;4.00;;;;;;;-143.84;39.00;44917.69;5089932;28;20480;-53
2023/08/12 10:10:22;;;;;;;4.53;3.80;;;;;;;-143.84;39.48;44889.13;5090094;28;20949;-53
2023/08/12 10:12:49;;;;;;;10.07;4.10;;;;;;;-143.84;40.68;44908.16;5090270;28;20443;-53
2023/08/12 10:15:18;;;;;;;5.47;4.17;;;;;;;-143.84;40.20;44885.31;5090324;28;20500;-53
2023/08/12 10:17:46;;;;;;;5.67;4.43;;;;;;;-143.84;41.45;44904.34;5089977;28;20448;-53
2023/08/12 10:20:15;;;;;;;5.57;4.10;;;;;;;-143.84;39.40;44915.78;5089411;28;20486;-53
2023/08/12 10:22:45;;;;;;;5.83;3.93;;;;;;;-143.84;39.57;44892.94;5089433;28;20442;-52
2023/08/12 10:25:15;;;;;;;8.00;3.83;;;;;;;-143.84;40.57;44902.44;5089565;28;20459;-53
2023/08/12 10:27:42;;;;;;;10.70;4.07;;;;;;;-143.84;39.61;44873.88;5089616;28;20431;-53
2023/08/12 10:30:10;;;;;;;9.23;3.67;;;;;;;-143.84;39.58;44894.84;5089771;28;20508;-53
2023/08/12 10:32:40;;;;;;;5.83;4.33;;;;;;;-143.84;39.56;44896.75;5089608;28;20481;-53
2023/08/12 10:35:08;;;;;;;4.87;4.07;;;;;;;-143.84;39.65;44917.69;5089537;28;20440;-53
2023/08/12 10:37:36;;;;;;;10.80;4.20;;;;;;;-143.84;40.10;44894.84;5088723;28;20871;-53
2023/08/12 10:40:07;;;;;;;11.20;4.97;;;;;;;-143.84;39.63;44915.78;5089374;28;20486;-53
2023/08/12 10:42:44;;;;;;;5.77;4.03;;;;;;;-143.84;39.85;44925.31;5089436;28;20440;-53
2023/08/12 10:45:12;;;;;;;11.40;4.63;;;;;;;-143.84;40.68;44900.53;5089452;28;20431;-53
2023/08/12 10:47:44;;;;;;;3.83;3.33;;;;;;;-143.84;39.60;44917.69;5089489;28;20839;-52
2023/08/12 10:50:21;;;;;;;6.67;3.77;;;;;;;-143.84;39.11;44896.75;5089017;28;20443;-53
2023/08/12 10:52:51;;;;;;;3.87;3.57;;;;;;;-143.84;38.92;44931.00;5089435;28;20842;-53
2023/08/12 10:55:22;;;;;;;7.80;3.80;;;;;;;-143.84;39.18;44910.06;5089390;28;20501;-53
2023/08/12 10:57:50;;;;;;;15.97;3.60;;;;;;;-143.84;39.28;44870.09;5089232;28;20451;-53
2023/08/12 11:00:18;;;;;;;6.63;3.07;;;;;;;-143.84;37.07;44900.53;5089341;28;21005;-53
2023/08/12 11:02:50;;;;;;;5.00;3.17;;;;;;;-143.84;36.73;44908.16;5088843;28;20483;-53
2023/08/12 11:05:18;;;;;;;5.73;3.37;;;;;;;-143.84;38.25;44934.81;5089026;28;20466;-53
2023/08/12 11:07:47;;;;;;;8.10;3.40;;;;;;;-143.84;37.29;44908.16;5089116;28;20436;-53
2023/08/12 11:10:16;;;;;;;10.00;2.90;;;;;;;-143.84;36.16;44904.34;5089350;28;20558;-53
2023/08/12 11:12:49;;;;;;;5.43;3.20;;;;;;;-143.84;37.29;44910.06;5089018;28;20440;-53
2023/08/12 11:15:16;;;;;;;4.50;3.53;;;;;;;-143.84;37.34;44919.59;5089101;28;20451;-53
2023/08/12 11:17:43;;;;;;;8.47;3.20;;;;;;;-143.84;37.29;44913.88;5089011;28;20489;-53
2023/08/12 11:20:14;;;;;;;4.33;3.00;;;;;;;-143.84;37.84;44900.53;5089034;28;20487;-53